Main page
METAR-TAF:

METAR-TAF

Airports :

Lago Agrio Airport

Nueva Loja, Ecuador

latitude: 00-05-33N, longitude: 076-52-10W, elevation: 299 m

Current weather observation

The report was made 12 hours and 42 minutes ago, at 22:00 UTC
Wind 4 kt from the Southwest
Temperature 25°C
Humidity 94%
Pressure 1012 hPa
Visibility 10 km or more
Scattered clouds at a height of 2000 ft
Broken clouds at a height of 10000 ft
showers in vicinity

METAR: SENL 112200Z 22004KT 9999 VCSH SCT020 BKN100 25/24 Q1012 RMK A2989

Time: 05:42 (10:42 UTC)


TAF: missing

Weather observations and forecasts of more than 4000 airports (METAR and TAF reports).

The available stations are represented by yellow and red dots on the map.

Hover mouse over dot to see the name of the station.

Then click to see weather observations and forecasts.

To change the map : click on the green buttons with a black cross to zoom in, on the green button with a dash to zoom out, or on the green arrows for adjacent maps.


METAR-TAF: